Time;durP1;ratioP1;P1;durP2;ratioP2;P2;SDS_P1;SDS_P2;PMS_P1;PMS_P2;Temp;Humidity;BMP_temperature;BMP_pressure;BME280_temperature;BME280_humidity;BME280_pressure;Samples;Min_cycle;Max_cycle;Signal;HPM_P1;HPM_P2
2022/01/14 00:01:22;;;;;;;14.93;5.90;;;6.00;99.90;;;;;;4130751;28;20057;-84
2022/01/14 00:03:23;;;;;;;25.77;5.90;;;5.90;99.90;;;;;;4120781;28;20046;-84
2022/01/14 00:05:24;;;;;;;12.52;5.28;;;6.00;99.90;;;;;;4149579;28;20052;-84
2022/01/14 00:07:26;;;;;;;15.75;5.32;;;6.00;99.90;;;;;;4116042;28;20494;-83
2022/01/14 00:09:27;;;;;;;15.65;5.38;;;6.00;99.90;;;;;;4132019;28;20046;-83
2022/01/14 00:11:30;;;;;;;14.52;5.82;;;6.10;99.90;;;;;;4131732;28;20054;-84
2022/01/14 00:16:05;;;;;;;13.00;5.15;;;5.90;99.90;;;;;;4127175;28;20133;-84
2022/01/14 00:18:06;;;;;;;9.63;4.68;;;5.90;99.90;;;;;;4114751;28;20055;-84
2022/01/14 00:20:07;;;;;;;11.90;4.90;;;6.00;99.90;;;;;;4146470;28;20107;-84
2022/01/14 00:22:12;;;;;;;13.57;5.22;;;6.00;99.90;;;;;;4148671;28;20406;-84
2022/01/14 00:33:16;;;;;;;12.27;4.60;;;6.60;99.90;;;;;;4135730;28;20061;-84
2022/01/14 00:35:17;;;;;;;17.55;4.95;;;6.00;99.90;;;;;;4133086;28;20046;-83
2022/01/14 00:37:21;;;;;;;9.60;4.07;;;6.00;99.90;;;;;;4132706;28;20070;-83
2022/01/14 00:39:22;;;;;;;16.48;4.57;;;6.30;99.90;;;;;;4132395;28;20085;-83
2022/01/14 00:41:22;;;;;;;11.50;4.22;;;6.50;99.90;;;;;;4130554;28;20054;-83
2022/01/14 00:43:23;;;;;;;16.92;4.85;;;6.30;99.90;;;;;;4128988;28;20046;-84
2022/01/14 00:45:25;;;;;;;13.77;4.80;;;6.80;99.90;;;;;;4130402;28;20078;-83
2022/01/14 00:47:27;;;;;;;15.55;5.18;;;6.00;99.90;;;;;;4130519;28;20484;-83
2022/01/14 00:49:27;;;;;;;9.77;4.65;;;6.00;99.90;;;;;;4138859;28;20498;-84
2022/01/14 00:51:28;;;;;;;19.83;5.35;;;6.10;99.90;;;;;;4112446;28;20141;-83
2022/01/14 00:53:30;;;;;;;23.08;5.82;;;6.00;99.90;;;;;;4114913;28;20138;-84
2022/01/14 00:55:45;;;;;;;23.20;5.65;;;6.80;99.90;;;;;;4125870;28;20046;-84
2022/01/14 00:59:59;;;;;;;21.27;4.97;;;6.10;99.90;;;;;;4116823;28;20047;-84
2022/01/14 01:02:01;;;;;;;20.73;6.88;;;6.00;99.90;;;;;;4128805;28;20113;-84
2022/01/14 01:04:02;;;;;;;18.58;5.38;;;6.20;99.90;;;;;;4115931;28;20077;-84
2022/01/14 01:06:04;;;;;;;10.63;4.88;;;6.00;99.90;;;;;;4132753;28;20086;-84
2022/01/14 01:08:10;;;;;;;14.68;4.95;;;6.00;99.90;;;;;;4144665;28;20056;-84
2022/01/14 01:10:11;;;;;;;16.42;5.03;;;6.30;99.90;;;;;;4131625;28;20058;-84
2022/01/14 01:14:39;;;;;;;14.23;4.70;;;6.00;99.90;;;;;;4131399;28;20061;-84
2022/01/14 01:16:40;;;;;;;17.92;4.60;;;6.50;99.90;;;;;;4129618;28;20130;-84
2022/01/14 01:18:40;;;;;;;14.70;5.25;;;6.00;99.90;;;;;;4113458;28;20054;-84
2022/01/14 01:20:41;;;;;;;18.65;5.68;;;6.10;99.90;;;;;;4129438;28;20054;-84
2022/01/14 01:22:42;;;;;;;14.27;5.30;;;6.00;99.90;;;;;;4129622;28;20055;-84
2022/01/14 01:24:43;;;;;;;17.77;5.13;;;7.00;99.90;;;;;;4129067;28;20050;-84
2022/01/14 01:26:44;;;;;;;13.85;5.68;;;6.00;99.90;;;;;;4131004;28;20042;-84
2022/01/14 01:31:37;;;;;;;9.68;4.65;;;6.00;99.90;;;;;;4114800;28;20061;-84
2022/01/14 01:33:36;;;;;;;12.77;4.82;;;6.10;99.90;;;;;;4123598;28;20511;-84
2022/01/14 01:35:37;;;;;;;16.73;4.75;;;6.00;99.90;;;;;;4134010;28;20050;-85
2022/01/14 01:37:37;;;;;;;16.20;5.13;;;6.60;99.90;;;;;;4125836;28;20055;-84
2022/01/14 01:39:38;;;;;;;13.23;4.75;;;6.00;99.90;;;;;;4132614;28;20977;-84
2022/01/14 01:41:43;;;;;;;24.83;6.32;;;6.00;99.90;;;;;;4150693;28;20050;-84
2022/01/14 01:43:50;;;;;;;22.90;5.78;;;6.00;99.90;;;;;;4132757;28;20050;-84
2022/01/14 01:45:51;;;;;;;15.30;4.95;;;6.00;99.90;;;;;;4132614;28;20046;-84
2022/01/14 01:47:54;;;;;;;16.58;4.95;;;6.70;99.90;;;;;;4131421;28;20466;-84
2022/01/14 01:49:54;;;;;;;17.05;5.55;;;6.90;99.90;;;;;;4133643;28;20051;-84
2022/01/14 01:51:56;;;;;;;12.25;5.13;;;6.00;99.90;;;;;;4132613;28;20459;-84
2022/01/14 01:53:56;;;;;;;18.15;5.72;;;6.00;99.90;;;;;;4149917;28;20475;-84
2022/01/14 01:55:57;;;;;;;12.70;5.05;;;6.90;99.90;;;;;;4132290;28;20126;-84
2022/01/14 01:57:58;;;;;;;21.70;5.20;;;6.00;99.90;;;;;;4132609;28;20054;-84
2022/01/14 01:59:59;;;;;;;16.48;5.65;;;6.00;99.90;;;;;;4115942;28;20073;-84
2022/01/14 02:02:00;;;;;;;17.50;5.85;;;6.00;99.90;;;;;;4132218;28;20039;-84
2022/01/14 02:04:01;;;;;;;14.27;3.65;;;6.00;99.90;;;;;;4149453;28;20041;-84
2022/01/14 02:06:03;;;;;;;18.33;5.68;;;6.00;99.90;;;;;;4148237;28;20395;-84
2022/01/14 02:08:04;;;;;;;23.05;5.90;;;6.90;99.90;;;;;;4145349;28;20045;-84
2022/01/14 02:10:06;;;;;;;11.15;4.57;;;6.00;99.90;;;;;;4117632;28;20085;-83
2022/01/14 02:12:10;;;;;;;10.93;4.93;;;6.00;99.90;;;;;;4102156;28;20059;-83
2022/01/14 02:14:27;;;;;;;18.48;6.93;;;5.90;99.90;;;;;;4133138;28;20060;-83
2022/01/14 02:17:00;;;;;;;17.08;5.68;;;6.00;99.90;;;;;;4151132;28;20073;-83
2022/01/14 02:22:08;;;;;;;13.13;4.57;;;6.00;99.90;;;;;;4137511;28;20089;-83
2022/01/14 02:23:44;;;;;;;;;;;6.00;99.90;;;;;;4158152;28;20129;-84
2022/01/14 02:25:46;;;;;;;16.58;6.03;;;6.00;99.90;;;;;;4131635;28;20092;-83
2022/01/14 02:27:46;;;;;;;19.40;5.50;;;6.00;99.90;;;;;;4130479;28;20061;-83
2022/01/14 02:29:47;;;;;;;20.88;5.95;;;6.10;99.90;;;;;;4115322;28;20050;-83
2022/01/14 02:31:49;;;;;;;16.23;6.03;;;6.00;99.90;;;;;;4119515;28;20148;-83
2022/01/14 02:33:50;;;;;;;19.83;5.93;;;6.70;99.90;;;;;;4116650;28;20055;-84
2022/01/14 02:35:51;;;;;;;16.38;5.03;;;6.00;99.90;;;;;;4117397;28;20563;-83
2022/01/14 02:37:55;;;;;;;17.73;6.10;;;6.00;99.90;;;;;;4144815;28;20058;-83
2022/01/14 02:39:56;;;;;;;14.63;6.40;;;6.00;99.90;;;;;;4133199;28;20125;-83
2022/01/14 02:41:57;;;;;;;22.30;7.35;;;7.00;99.90;;;;;;4148874;28;20437;-83
2022/01/14 02:44:03;;;;;;;14.93;6.22;;;6.00;99.90;;;;;;4137101;28;20046;-83
2022/01/14 02:46:06;;;;;;;19.90;6.07;;;6.00;99.90;;;;;;4133680;28;20070;-83
2022/01/14 02:48:07;;;;;;;17.30;6.50;;;6.00;99.90;;;;;;4133665;28;20112;-83
2022/01/14 02:50:14;;;;;;;13.52;6.25;;;6.00;99.90;;;;;;4135044;28;20614;-83
2022/01/14 02:52:14;;;;;;;17.05;6.60;;;6.00;99.90;;;;;;4134991;28;20144;-83
2022/01/14 02:54:22;;;;;;;15.68;5.78;;;6.00;99.90;;;;;;4133929;28;20046;-83
2022/01/14 02:56:29;;;;;;;20.50;6.05;;;6.00;99.90;;;;;;4134676;28;20050;-84
2022/01/14 02:58:33;;;;;;;21.42;6.93;;;6.00;99.90;;;;;;4133872;28;20047;-83
2022/01/14 03:00:33;;;;;;;25.83;6.75;;;6.00;99.90;;;;;;4134144;28;20046;-83
2022/01/14 03:02:35;;;;;;;22.42;6.43;;;6.10;99.90;;;;;;4134776;28;20133;-84
2022/01/14 03:04:39;;;;;;;24.10;6.68;;;6.70;99.90;;;;;;4133642;28;20050;-84
2022/01/14 03:06:40;;;;;;;16.70;5.95;;;6.40;99.90;;;;;;4135838;28;20077;-83
2022/01/14 03:08:42;;;;;;;11.55;6.25;;;6.10;99.90;;;;;;4134704;28;20054;-83
2022/01/14 03:10:45;;;;;;;16.92;6.43;;;6.10;99.90;;;;;;4135004;28;20419;-83
2022/01/14 03:12:47;;;;;;;21.33;6.53;;;6.10;99.90;;;;;;4137510;28;20207;-83
2022/01/14 03:14:47;;;;;;;19.00;5.97;;;6.10;99.90;;;;;;4145637;28;20069;-83
2022/01/14 03:16:55;;;;;;;15.20;6.28;;;6.10;99.90;;;;;;4148618;28;20022;-84
2022/01/14 03:19:05;;;;;;;21.00;7.10;;;6.10;99.90;;;;;;4147902;28;20061;-84
2022/01/14 03:21:17;;;;;;;17.50;6.18;;;6.20;99.90;;;;;;4143665;28;20051;-84
2022/01/14 03:23:19;;;;;;;17.60;7.13;;;6.80;99.90;;;;;;4132084;28;20149;-84
2022/01/14 03:27:43;;;;;;;18.08;6.63;;;6.10;99.90;;;;;;4133182;28;20061;-84
2022/01/14 03:29:51;;;;;;;20.95;6.05;;;6.30;99.90;;;;;;4132041;28;20820;-84
2022/01/14 03:31:52;;;;;;;21.75;6.97;;;6.10;99.90;;;;;;4130899;28;20058;-84
2022/01/14 03:33:53;;;;;;;17.45;7.60;;;6.40;99.90;;;;;;4123741;28;20400;-85
2022/01/14 03:35:53;;;;;;;21.13;6.97;;;6.20;99.90;;;;;;4115523;28;20490;-83
2022/01/14 03:37:55;;;;;;;22.50;7.82;;;6.10;99.90;;;;;;4131550;28;20058;-83
2022/01/14 03:39:57;;;;;;;20.30;6.32;;;6.20;99.90;;;;;;4131798;28;20050;-84
2022/01/14 03:41:58;;;;;;;21.90;6.45;;;6.50;99.90;;;;;;4131893;28;20050;-84
2022/01/14 03:43:58;;;;;;;18.40;6.28;;;6.20;99.90;;;;;;4132581;28;20073;-84
2022/01/14 03:45:59;;;;;;;14.80;6.38;;;7.00;99.90;;;;;;4132178;28;20039;-84
2022/01/14 03:48:00;;;;;;;18.83;6.40;;;6.20;99.90;;;;;;4133058;28;20043;-84
2022/01/14 03:50:01;;;;;;;21.67;7.25;;;6.20;99.90;;;;;;4113663;28;20526;-84
2022/01/14 03:52:02;;;;;;;22.05;6.32;;;6.20;99.90;;;;;;4132388;28;20050;-84
2022/01/14 03:54:03;;;;;;;14.85;6.38;;;6.20;99.90;;;;;;4131834;28;20137;-84
2022/01/14 03:56:04;;;;;;;17.88;6.47;;;6.20;99.90;;;;;;4115286;28;20057;-84
2022/01/14 03:58:06;;;;;;;23.17;6.97;;;6.20;99.90;;;;;;4131120;28;20130;-84
2022/01/14 04:00:07;;;;;;;19.10;7.63;;;6.30;99.90;;;;;;4132591;28;20054;-84
2022/01/14 04:02:08;;;;;;;21.23;6.70;;;6.30;99.90;;;;;;4134208;28;20050;-84
2022/01/14 04:04:09;;;;;;;14.75;6.07;;;6.80;99.90;;;;;;4132662;28;20051;-83
2022/01/14 04:06:10;;;;;;;21.70;7.97;;;7.20;99.90;;;;;;4134204;28;20035;-83
2022/01/14 04:08:11;;;;;;;19.17;6.25;;;7.40;99.90;;;;;;4150077;28;20143;-84
2022/01/14 04:10:13;;;;;;;17.02;5.93;;;6.70;99.90;;;;;;4133428;28;20442;-84
2022/01/14 04:12:20;;;;;;;17.35;6.30;;;6.30;99.90;;;;;;4120671;28;20126;-84
2022/01/14 04:16:24;;;;;;;16.35;5.32;;;6.30;99.90;;;;;;4134048;28;20495;-84
2022/01/14 04:18:25;;;;;;;25.42;7.68;;;6.90;99.90;;;;;;4132422;28;20176;-84
2022/01/14 04:20:27;;;;;;;22.00;7.18;;;6.20;99.90;;;;;;4131433;28;20058;-84
2022/01/14 04:22:27;;;;;;;18.60;7.20;;;6.20;99.90;;;;;;4132322;28;20042;-84
2022/01/14 04:24:28;;;;;;;16.40;6.72;;;6.50;99.90;;;;;;4129831;28;20606;-84
2022/01/14 04:26:30;;;;;;;18.95;6.75;;;6.10;99.90;;;;;;4130680;28;20046;-83
2022/01/14 04:28:35;;;;;;;21.98;7.30;;;6.20;99.90;;;;;;4130979;28;20419;-84
2022/01/14 04:30:36;;;;;;;14.55;6.70;;;7.00;99.90;;;;;;4130697;28;20133;-84
2022/01/14 04:32:36;;;;;;;16.83;6.53;;;6.20;99.90;;;;;;4130652;28;20446;-84
2022/01/14 04:34:37;;;;;;;21.08;7.13;;;6.10;99.90;;;;;;4130782;28;20058;-84
2022/01/14 04:36:38;;;;;;;22.27;6.78;;;6.10;99.90;;;;;;4122226;28;20058;-84
2022/01/14 04:38:39;;;;;;;17.60;6.05;;;6.10;99.90;;;;;;4112593;28;20137;-84
2022/01/14 04:40:40;;;;;;;22.48;7.97;;;6.10;99.90;;;;;;4132251;28;20507;-84
2022/01/14 04:42:42;;;;;;;18.00;7.15;;;6.10;99.90;;;;;;4130635;28;20050;-83
2022/01/14 04:44:44;;;;;;;17.23;7.10;;;6.40;99.90;;;;;;4130921;28;20042;-83
2022/01/14 04:47:00;;;;;;;17.88;6.95;;;6.10;99.90;;;;;;4130509;28;20069;-84
2022/01/14 04:49:01;;;;;;;14.90;6.72;;;6.20;99.90;;;;;;4130928;28;20145;-83
2022/01/14 04:51:06;;;;;;;16.17;5.93;;;6.10;99.90;;;;;;4130172;28;20050;-83
2022/01/14 04:53:10;;;;;;;20.58;6.53;;;6.10;99.90;;;;;;4129605;28;20136;-84
2022/01/14 04:55:13;;;;;;;19.85;6.80;;;6.70;99.90;;;;;;4125743;28;20034;-84
2022/01/14 04:57:16;;;;;;;17.52;6.78;;;7.00;99.90;;;;;;4129720;28;20104;-83
2022/01/14 04:59:17;;;;;;;15.38;6.57;;;6.40;99.90;;;;;;4129954;28;20050;-84
2022/01/14 05:01:18;;;;;;;19.33;6.50;;;6.10;99.90;;;;;;4127698;28;20093;-84
2022/01/14 05:03:18;;;;;;;22.80;7.03;;;7.10;99.90;;;;;;4131111;28;20050;-84
2022/01/14 05:05:22;;;;;;;18.58;7.30;;;7.30;99.90;;;;;;4134383;28;20570;-84
2022/01/14 05:07:26;;;;;;;19.90;7.25;;;6.60;99.90;;;;;;4132047;28;20713;-83
2022/01/14 05:09:35;;;;;;;18.45;7.38;;;6.00;99.90;;;;;;4118635;28;20046;-84
2022/01/14 05:11:40;;;;;;;;;;;6.00;99.90;;;;;;4136254;28;20078;-84
2022/01/14 05:13:41;;;;;;;14.75;5.78;;;6.10;99.90;;;;;;4135451;28;20714;-84
2022/01/14 05:15:42;;;;;;;18.65;7.18;;;6.00;99.90;;;;;;4117628;28;20050;-84
2022/01/14 05:17:44;;;;;;;19.23;6.68;;;6.10;99.90;;;;;;4132834;28;20049;-84
2022/01/14 05:19:45;;;;;;;21.05;7.55;;;6.10;99.90;;;;;;4130403;28;20116;-83
2022/01/14 05:21:45;;;;;;;18.58;5.88;;;6.00;99.90;;;;;;4129309;28;20094;-84
2022/01/14 05:23:47;;;;;;;19.48;6.47;;;6.10;99.90;;;;;;4134209;28;20050;-84
2022/01/14 05:25:48;;;;;;;18.98;8.00;;;6.80;99.90;;;;;;4131148;28;20038;-85
2022/01/14 05:27:49;;;;;;;17.85;7.20;;;6.80;99.90;;;;;;4124426;28;20096;-83
2022/01/14 05:29:50;;;;;;;23.60;6.90;;;6.70;99.90;;;;;;4134645;28;20054;-84
2022/01/14 05:32:01;;;;;;;19.30;7.25;;;6.10;99.90;;;;;;4133107;28;20129;-84
2022/01/14 05:34:03;;;;;;;13.77;6.80;;;6.10;99.90;;;;;;4132723;28;20431;-83
2022/01/14 05:36:08;;;;;;;22.42;7.18;;;6.10;99.90;;;;;;4132982;28;20586;-84
2022/01/14 05:38:09;;;;;;;26.20;6.97;;;6.10;99.90;;;;;;4118454;28;20571;-82
2022/01/14 05:40:11;;;;;;;28.77;6.82;;;6.10;99.90;;;;;;4133227;28;20085;-82
2022/01/14 05:42:12;;;;;;;28.30;7.68;;;6.10;99.90;;;;;;4132459;28;20104;-82
2022/01/14 05:44:14;;;;;;;12.77;6.93;;;6.10;99.90;;;;;;4131102;28;20188;-83
2022/01/14 05:46:15;;;;;;;18.77;7.18;;;6.10;99.90;;;;;;4128701;28;20046;-82
2022/01/14 05:48:16;;;;;;;18.67;6.72;;;6.10;99.90;;;;;;4133287;28;20115;-82
2022/01/14 05:50:20;;;;;;;15.75;6.75;;;6.10;99.90;;;;;;4117523;28;20039;-82
2022/01/14 05:52:21;;;;;;;17.55;8.02;;;6.10;99.90;;;;;;4134758;28;20092;-83
2022/01/14 05:54:23;;;;;;;20.20;7.40;;;6.20;99.90;;;;;;4134209;28;20054;-82
2022/01/14 05:56:23;;;;;;;18.48;7.03;;;6.50;99.90;;;;;;4101087;28;20046;-83
2022/01/14 05:58:24;;;;;;;19.35;7.35;;;6.10;99.90;;;;;;4116998;28;20047;-82
2022/01/14 06:00:25;;;;;;;20.13;7.45;;;6.00;99.90;;;;;;4119441;28;20046;-83
2022/01/14 06:02:27;;;;;;;27.40;7.72;;;6.00;99.90;;;;;;4120954;28;20038;-83
2022/01/14 06:04:27;;;;;;;25.70;7.40;;;6.00;99.90;;;;;;4116633;28;20061;-83
2022/01/14 06:06:30;;;;;;;21.80;6.53;;;6.10;99.90;;;;;;4120940;28;20490;-83
2022/01/14 06:08:31;;;;;;;18.92;7.22;;;6.90;99.90;;;;;;4133644;28;20046;-84
2022/01/14 06:10:31;;;;;;;20.30;7.45;;;6.70;99.90;;;;;;4119711;28;20454;-83
2022/01/14 06:12:32;;;;;;;17.80;7.10;;;6.90;99.90;;;;;;4124607;28;20058;-83
2022/01/14 06:14:33;;;;;;;14.80;7.00;;;6.80;99.90;;;;;;4118016;28;20051;-84
2022/01/14 06:16:34;;;;;;;27.65;6.32;;;6.70;99.90;;;;;;4131941;28;20046;-84
2022/01/14 06:18:34;;;;;;;20.73;7.40;;;6.00;99.90;;;;;;4133167;28;20080;-83
2022/01/14 06:20:37;;;;;;;16.65;6.25;;;6.00;99.90;;;;;;4129482;28;20091;-83
2022/01/14 06:22:38;;;;;;;15.93;6.13;;;6.80;99.90;;;;;;4133383;28;20085;-83
2022/01/14 06:24:39;;;;;;;18.40;6.07;;;6.00;99.90;;;;;;4134122;28;20065;-83
2022/01/14 06:26:40;;;;;;;19.08;7.93;;;6.00;99.90;;;;;;4133088;28;20050;-83
2022/01/14 06:28:42;;;;;;;17.38;6.40;;;6.90;99.90;;;;;;4132496;28;20049;-84
2022/01/14 06:30:43;;;;;;;17.30;7.25;;;6.00;99.90;;;;;;4116840;28;20483;-84
2022/01/14 06:32:44;;;;;;;18.25;6.28;;;6.60;99.90;;;;;;4116122;28;20047;-84
2022/01/14 06:34:45;;;;;;;20.17;6.22;;;6.00;99.90;;;;;;4126583;28;20173;-84
2022/01/14 06:36:46;;;;;;;17.23;6.65;;;6.00;99.90;;;;;;4132856;28;20052;-84
2022/01/14 06:38:47;;;;;;;15.77;6.55;;;6.10;99.90;;;;;;4132757;28;20082;-84
2022/01/14 06:40:48;;;;;;;17.88;6.25;;;6.30;99.90;;;;;;4116722;28;20058;-84
2022/01/14 06:42:50;;;;;;;16.40;6.50;;;6.10;99.90;;;;;;4138343;28;20050;-84
2022/01/14 06:44:50;;;;;;;17.60;6.15;;;6.00;99.90;;;;;;4130720;28;20130;-84
2022/01/14 06:46:52;;;;;;;20.77;5.47;;;6.30;99.90;;;;;;4128565;28;20494;-83
2022/01/14 06:48:52;;;;;;;12.85;5.20;;;6.20;99.90;;;;;;4131269;28;20073;-83
2022/01/14 06:50:54;;;;;;;18.98;5.80;;;6.10;99.90;;;;;;4133884;28;20042;-84
2022/01/14 06:52:55;;;;;;;19.90;5.88;;;6.10;99.90;;;;;;4132093;28;20058;-84
2022/01/14 06:54:56;;;;;;;18.90;5.40;;;6.10;99.90;;;;;;4133585;28;20046;-84
2022/01/14 06:56:57;;;;;;;17.20;5.63;;;7.10;99.90;;;;;;4131169;28;20046;-84
2022/01/14 06:58:57;;;;;;;14.95;5.90;;;6.10;99.90;;;;;;4131507;28;20046;-84
2022/01/14 07:00:58;;;;;;;15.70;5.22;;;6.10;99.90;;;;;;4132767;28;20498;-84
2022/01/14 07:02:58;;;;;;;16.40;5.43;;;6.10;99.90;;;;;;4114884;28;20057;-84
2022/01/14 07:04:59;;;;;;;18.67;5.25;;;6.20;99.90;;;;;;4128432;28;20049;-83
2022/01/14 07:07:00;;;;;;;11.98;4.78;;;6.10;99.90;;;;;;4127393;28;20104;-84
2022/01/14 07:09:01;;;;;;;14.77;5.20;;;6.10;99.90;;;;;;4133765;28;20053;-84
2022/01/14 07:11:02;;;;;;;14.57;5.15;;;6.30;99.90;;;;;;4132680;28;20053;-84
2022/01/14 07:13:04;;;;;;;15.75;4.57;;;6.20;99.90;;;;;;4133179;28;20050;-84
2022/01/14 07:15:10;;;;;;;13.45;4.50;;;6.60;99.90;;;;;;4132553;28;20050;-84
2022/01/14 07:17:11;;;;;;;10.68;3.92;;;6.10;99.90;;;;;;4133854;28;20047;-84
2022/01/14 07:19:12;;;;;;;13.23;4.57;;;6.10;99.90;;;;;;4132908;28;20380;-84
2022/01/14 07:21:13;;;;;;;12.57;4.65;;;7.40;99.90;;;;;;4132187;28;20419;-84
2022/01/14 07:23:14;;;;;;;22.00;5.57;;;6.10;99.90;;;;;;4131468;28;20051;-84
2022/01/14 07:25:15;;;;;;;11.77;4.68;;;7.00;99.90;;;;;;4133035;28;20054;-84
2022/01/14 07:27:16;;;;;;;10.57;5.35;;;6.20;99.90;;;;;;4114991;28;20609;-84
2022/01/14 07:29:16;;;;;;;11.82;4.63;;;6.20;99.90;;;;;;4147365;28;20041;-84
2022/01/14 07:31:17;;;;;;;14.30;4.57;;;6.20;99.90;;;;;;4121813;28;20043;-84
2022/01/14 07:33:18;;;;;;;11.85;4.35;;;6.20;99.90;;;;;;4114689;28;20073;-84
2022/01/14 07:35:18;;;;;;;19.70;4.72;;;6.20;99.90;;;;;;4127226;28;20415;-85
2022/01/14 07:37:40;;;;;;;;;;;;;;;;;;;;;
2022/01/14 07:39:41;;;;;;;16.88;3.80;;;6.20;99.90;;;;;;4131907;28;20141;-85
2022/01/14 07:41:42;;;;;;;16.00;4.82;;;7.00;99.90;;;;;;4126460;28;20085;-85
2022/01/14 07:43:47;;;;;;;7.57;3.17;;;7.50;99.90;;;;;;4132039;28;20379;-85
2022/01/14 07:45:48;;;;;;;18.38;4.30;;;7.50;99.90;;;;;;4116549;28;20046;-85
2022/01/14 07:47:49;;;;;;;14.70;3.80;;;6.20;99.90;;;;;;4118059;28;20055;-85
2022/01/14 07:49:50;;;;;;;9.15;3.60;;;6.40;99.90;;;;;;4117935;28;20558;-85
2022/01/14 07:51:51;;;;;;;13.20;3.78;;;7.10;99.90;;;;;;4120022;28;20051;-84
2022/01/14 07:53:52;;;;;;;13.85;3.63;;;7.30;99.90;;;;;;4131885;28;20094;-85
2022/01/14 07:55:53;;;;;;;9.48;3.72;;;6.20;99.90;;;;;;4133953;28;20050;-84
2022/01/14 07:57:54;;;;;;;12.27;4.13;;;6.40;99.90;;;;;;4133099;28;20444;-85
2022/01/14 07:59:54;;;;;;;16.58;3.70;;;5.90;99.90;;;;;;4130905;28;20060;-85
2022/01/14 08:01:58;;;;;;;14.63;3.63;;;6.20;99.90;;;;;;4135729;28;20124;-86
2022/01/14 08:03:59;;;;;;;13.70;3.45;;;6.20;99.90;;;;;;4132498;28;20049;-85
2022/01/14 08:06:10;;;;;;;12.10;3.35;;;7.70;99.90;;;;;;4134459;28;20506;-85
2022/01/14 08:08:11;;;;;;;11.60;2.60;;;6.40;99.90;;;;;;4122230;28;20210;-85
2022/01/14 08:10:13;;;;;;;12.85;3.50;;;6.30;99.90;;;;;;4131962;28;20050;-85
2022/01/14 08:12:14;;;;;;;11.32;3.10;;;6.20;99.90;;;;;;4132035;28;20153;-85
2022/01/14 08:14:16;;;;;;;16.38;4.03;;;6.50;99.90;;;;;;4131976;28;20077;-85
2022/01/14 08:16:17;;;;;;;9.60;2.85;;;6.30;99.90;;;;;;4129244;28;20061;-85
2022/01/14 08:18:18;;;;;;;10.63;3.10;;;6.30;99.90;;;;;;4133434;28;20073;-85
2022/01/14 08:20:19;;;;;;;7.75;3.75;;;6.30;99.90;;;;;;4149194;28;20052;-85
2022/01/14 08:22:20;;;;;;;9.75;2.85;;;7.10;99.90;;;;;;4123254;28;20051;-85
2022/01/14 08:24:21;;;;;;;10.07;2.90;;;7.00;99.90;;;;;;4143792;28;20414;-86
2022/01/14 08:26:22;;;;;;;16.95;2.95;;;6.40;99.90;;;;;;4130178;28;20059;-86
2022/01/14 08:28:23;;;;;;;8.85;3.28;;;6.30;99.90;;;;;;4131939;28;20047;-85
2022/01/14 08:30:23;;;;;;;12.90;3.15;;;6.40;99.90;;;;;;4127641;28;20116;-86
2022/01/14 08:32:24;;;;;;;6.38;2.58;;;7.20;99.90;;;;;;4134493;28;20043;-86
2022/01/14 08:34:27;;;;;;;13.43;3.88;;;7.30;99.90;;;;;;4115355;28;20053;-87
2022/01/14 08:36:30;;;;;;;10.00;3.05;;;6.40;99.90;;;;;;4128148;28;20058;-86
2022/01/14 08:38:31;;;;;;;10.52;2.85;;;7.00;99.90;;;;;;4127922;28;20030;-87
2022/01/14 08:40:32;;;;;;;11.60;3.08;;;6.50;99.90;;;;;;4119070;28;20046;-86
2022/01/14 08:42:33;;;;;;;7.68;2.45;;;7.60;99.90;;;;;;4123225;28;20046;-87
2022/01/14 08:44:36;;;;;;;12.68;3.03;;;6.50;99.90;;;;;;4125010;28;20066;-88
2022/01/14 08:46:37;;;;;;;14.13;2.78;;;7.10;99.90;;;;;;4120142;28;20117;-86
2022/01/14 08:48:37;;;;;;;11.50;3.33;;;6.50;99.90;;;;;;4125622;28;20466;-87
2022/01/14 08:50:39;;;;;;;12.15;3.00;;;6.90;99.90;;;;;;4128235;28;20081;-86
2022/01/14 08:52:40;;;;;;;7.68;3.22;;;6.60;99.90;;;;;;4123822;28;20125;-88
2022/01/14 08:54:42;;;;;;;10.45;3.50;;;7.10;99.90;;;;;;4122380;28;20043;-86
2022/01/14 08:56:43;;;;;;;12.35;3.00;;;6.70;99.90;;;;;;4130332;28;20042;-88
2022/01/14 08:58:44;;;;;;;11.73;2.78;;;7.80;99.90;;;;;;4132758;28;20050;-87
2022/01/14 09:00:45;;;;;;;8.93;3.10;;;7.00;99.90;;;;;;4133110;28;20124;-86
2022/01/14 09:02:46;;;;;;;8.90;2.63;;;6.70;99.90;;;;;;4135667;28;20534;-87
2022/01/14 09:04:46;;;;;;;12.52;2.45;;;7.50;99.90;;;;;;4126401;28;20541;-87
2022/01/14 09:06:48;;;;;;;11.50;3.10;;;6.70;99.90;;;;;;4119947;28;20101;-88
2022/01/14 09:08:49;;;;;;;11.45;2.60;;;6.90;99.90;;;;;;4103500;28;20039;-86
2022/01/14 09:10:51;;;;;;;9.65;2.78;;;7.30;99.90;;;;;;4124658;28;20398;-87
2022/01/14 09:12:52;;;;;;;12.27;2.70;;;7.80;99.90;;;;;;4128339;28;20129;-87
2022/01/14 09:14:54;;;;;;;6.78;3.38;;;6.80;99.90;;;;;;4120178;28;20772;-86
2022/01/14 09:16:56;;;;;;;5.57;3.08;;;7.60;99.90;;;;;;4115017;28;20043;-86
2022/01/14 09:18:58;;;;;;;10.77;2.58;;;6.80;99.90;;;;;;4123612;28;20154;-87
2022/01/14 09:21:00;;;;;;;10.20;2.83;;;6.90;99.90;;;;;;4127520;28;20043;-87
2022/01/14 09:23:01;;;;;;;14.45;3.20;;;7.10;99.90;;;;;;4127652;28;20089;-88
2022/01/14 09:25:07;;;;;;;6.25;2.70;;;8.00;99.90;;;;;;4126074;28;20307;-88
2022/01/14 09:27:08;;;;;;;10.60;3.45;;;6.90;99.90;;;;;;4117160;28;20051;-88
2022/01/14 09:29:09;;;;;;;5.93;2.13;;;8.10;99.90;;;;;;4128455;28;20122;-86
2022/01/14 09:31:10;;;;;;;11.82;2.53;;;8.10;99.90;;;;;;4126593;28;20046;-86
2022/01/14 09:33:11;;;;;;;8.25;2.53;;;7.50;99.90;;;;;;4130333;28;20054;-87
2022/01/14 09:35:13;;;;;;;8.65;2.08;;;7.00;99.90;;;;;;4125185;28;20455;-86
2022/01/14 09:37:14;;;;;;;7.15;1.77;;;7.10;99.90;;;;;;4120989;28;20042;-86
2022/01/14 09:39:15;;;;;;;9.43;1.88;;;7.60;99.90;;;;;;4120283;28;20042;-85
2022/01/14 09:41:18;;;;;;;8.32;1.65;;;7.10;99.90;;;;;;4131796;28;20487;-86
2022/01/14 09:43:19;;;;;;;10.93;1.48;;;7.10;99.90;;;;;;4131996;28;20495;-84
2022/01/14 09:45:21;;;;;;;10.63;2.20;;;8.20;99.90;;;;;;4126222;28;20041;-86
2022/01/14 09:47:23;;;;;;;12.05;1.63;;;7.60;99.90;;;;;;4130074;28;20046;-86
2022/01/14 09:49:26;;;;;;;8.05;1.98;;;7.20;99.90;;;;;;4130388;28;20081;-86
2022/01/14 09:51:27;;;;;;;7.32;1.73;;;7.20;99.90;;;;;;4131807;28;20034;-86
2022/01/14 09:53:28;;;;;;;8.15;2.17;;;7.30;99.90;;;;;;4134302;28;20080;-86
2022/01/14 09:55:30;;;;;;;7.30;1.90;;;7.30;99.90;;;;;;4134347;28;20188;-86
2022/01/14 09:57:31;;;;;;;12.88;1.75;;;7.40;99.90;;;;;;4125114;28;20035;-86
2022/01/14 09:59:32;;;;;;;12.45;2.00;;;8.70;99.90;;;;;;4134404;28;20105;-86
2022/01/14 10:01:42;;;;;;;9.25;1.60;;;7.70;99.90;;;;;;4124568;28;20051;-85
2022/01/14 10:03:56;;;;;;;12.85;2.80;;;7.40;99.90;;;;;;4119670;28;20047;-86
2022/01/14 10:05:57;;;;;;;10.55;1.60;;;7.40;99.90;;;;;;4123003;28;20564;-86
2022/01/14 10:08:30;;;;;;;5.43;1.80;;;7.40;99.90;;;;;;4118923;28;20043;-86
2022/01/14 10:10:36;;;;;;;8.18;1.50;;;7.40;99.90;;;;;;4087677;28;20419;-86
2022/01/14 10:12:38;;;;;;;4.55;1.30;;;7.80;99.90;;;;;;4148988;28;20074;-85
2022/01/14 10:14:43;;;;;;;8.43;1.60;;;7.60;99.90;;;;;;4161803;28;20038;-85
2022/01/14 10:16:44;;;;;;;13.98;2.75;;;8.40;99.90;;;;;;4150152;28;20053;-85
2022/01/14 10:18:50;;;;;;;6.75;1.20;;;8.00;99.90;;;;;;4147027;28;20050;-87
2022/01/14 10:20:51;;;;;;;9.82;2.17;;;8.10;99.90;;;;;;4136370;28;20049;-86
2022/01/14 10:22:51;;;;;;;10.38;1.88;;;7.40;99.90;;;;;;4135930;28;20508;-86
2022/01/14 10:24:58;;;;;;;14.02;1.63;;;7.40;99.90;;;;;;4135211;28;20422;-86
2022/01/14 10:27:03;;;;;;;4.93;1.30;;;7.40;99.90;;;;;;4134281;28;20046;-86
2022/01/14 10:29:08;;;;;;;13.60;1.58;;;7.40;99.90;;;;;;4134681;28;20073;-86
2022/01/14 10:31:08;;;;;;;5.78;1.75;;;7.50;99.90;;;;;;4134631;28;20395;-86
2022/01/14 10:33:10;;;;;;;5.80;1.40;;;7.90;99.90;;;;;;4117522;28;20050;-86
2022/01/14 10:35:16;;;;;;;9.95;1.80;;;8.70;99.90;;;;;;4149562;28;20049;-86
2022/01/14 10:37:17;;;;;;;13.07;1.70;;;8.30;99.90;;;;;;4124210;28;20049;-86
2022/01/14 10:39:26;;;;;;;9.05;1.58;;;7.40;99.90;;;;;;4117372;28;20125;-86
2022/01/14 10:41:30;;;;;;;5.50;1.35;;;8.00;99.90;;;;;;4134912;28;20077;-85
2022/01/14 10:43:35;;;;;;;9.02;1.90;;;7.50;99.90;;;;;;4133629;28;20125;-85
2022/01/14 10:45:37;;;;;;;6.03;1.73;;;7.50;99.90;;;;;;4134825;28;20124;-85
2022/01/14 10:47:38;;;;;;;11.30;1.73;;;7.90;99.90;;;;;;4134916;28;20042;-85
2022/01/14 10:49:40;;;;;;;5.13;1.10;;;7.80;99.90;;;;;;4133558;28;20108;-84
2022/01/14 10:51:44;;;;;;;9.35;2.30;;;8.20;99.90;;;;;;4124508;28;20451;-85
2022/01/14 10:53:53;;;;;;;11.63;1.50;;;8.80;99.90;;;;;;4101692;28;20055;-85
2022/01/14 10:56:34;;;;;;;11.95;1.35;;;7.50;99.90;;;;;;4133664;28;20058;-85
2022/01/14 10:58:37;;;;;;;8.52;1.60;;;7.60;99.90;;;;;;4105528;28;20550;-85
2022/01/14 11:00:46;;;;;;;7.63;2.03;;;7.60;99.90;;;;;;4126041;28;20095;-85
2022/01/14 11:02:48;;;;;;;;;;;7.60;99.90;;;;;;4143539;28;20537;-85
2022/01/14 11:05:05;;;;;;;9.88;2.85;;;7.60;99.90;;;;;;4126668;28;20425;-85
2022/01/14 11:07:22;;;;;;;10.70;1.42;;;7.60;99.90;;;;;;4118495;28;20050;-84